In Rescue
 
Open Full Screen Window  High Contrast Mode
Wind Gusting 20 knots
12
April 20, 2024 9:09 AM CDT
Weather Information
Wind Direction
  310 °
Wind Speed
  12 kt (14 mph)
Wind Gust
  20 kt (23 mph)
Altimeter
30.30 in
Visibility
10 SM
Temperature
00° C
32° F
Dewpoint
-07° C
19° F
Humidity
59%
Sky Condition
Overcast @ 2,900 ft
MVFR

METAR KGYL 201409Z AUTO 31012G20KT 10SM OVC029 00/M07 A3030 RMK AO2 T00001066

FAA Disclaimer: The data displayed is for advisory purposes only and is not to be used for flight planning or operations.